createdAt,value
2023-03-14T00:01:50.315Z,73.78
2023-03-14T00:04:56.330Z,73.72
2023-03-14T00:07:58.570Z,73.69
2023-03-14T00:11:15.807Z,73.88
2023-03-14T00:14:17.995Z,73.79
2023-03-14T00:17:20.245Z,73.75
2023-03-14T00:20:22.484Z,73.88
2023-03-14T00:23:24.721Z,73.81
2023-03-14T00:26:26.917Z,73.50
2023-03-14T00:29:29.178Z,73.42
2023-03-14T00:32:31.485Z,73.56
2023-03-14T00:35:33.750Z,73.35
2023-03-14T00:38:37.037Z,73.55
2023-03-14T00:41:40.731Z,73.93
2023-03-14T00:44:42.930Z,74.21
2023-03-14T00:47:46.613Z,74.33
2023-03-14T00:50:49.129Z,74.85
2023-03-14T00:53:51.687Z,74.87
2023-03-14T00:56:53.998Z,74.96
2023-03-14T00:59:56.750Z,75.09
2023-03-14T01:02:59.173Z,75.27
2023-03-14T01:06:28.665Z,75.63
2023-03-14T01:09:30.973Z,75.88
2023-03-14T01:12:33.320Z,76.06
2023-03-14T01:15:36.963Z,76.30
2023-03-14T01:18:40.922Z,76.65
2023-03-14T01:21:43.230Z,76.71
2023-03-14T01:24:45.428Z,77.00
2023-03-14T01:27:47.609Z,77.31
2023-03-14T01:30:56.529Z,77.68
2023-03-14T01:33:59.056Z,77.90
2023-03-14T01:37:01.538Z,78.16
2023-03-14T01:40:06.283Z,78.36
2023-03-14T01:43:22.322Z,78.36
2023-03-14T01:46:36.838Z,78.51
2023-03-14T01:49:40.007Z,78.24
2023-03-14T01:52:50.160Z,78.17
2023-03-14T01:55:57.366Z,77.90
2023-03-14T01:59:02.079Z,77.62
2023-03-14T02:02:08.550Z,77.52
2023-03-14T02:05:18.410Z,77.31
2023-03-14T02:08:25.570Z,77.04
2023-03-14T02:11:33.523Z,77.18
2023-03-14T02:14:41.766Z,77.27
2023-03-14T02:17:53.525Z,77.14
2023-03-14T02:21:43.268Z,77.15
2023-03-14T02:25:14.008Z,77.08
2023-03-14T02:28:17.387Z,76.96
2023-03-14T02:31:22.062Z,76.80
2023-03-14T02:34:26.929Z,76.13
2023-03-14T02:37:37.128Z,75.84
2023-03-14T02:40:41.762Z,75.57
2023-03-14T02:43:44.013Z,74.60
2023-03-14T02:46:48.227Z,73.88
2023-03-14T02:49:59.713Z,73.67
2023-03-14T02:53:02.118Z,73.73
2023-03-14T02:56:05.185Z,73.65
2023-03-14T02:59:09.671Z,73.41
2023-03-14T03:02:23.302Z,73.44
2023-03-14T03:05:28.031Z,73.62
2023-03-14T03:08:30.500Z,73.78
2023-03-14T03:11:34.446Z,73.78
2023-03-14T03:14:38.431Z,73.79
2023-03-14T03:17:41.427Z,73.83
2023-03-14T03:20:43.722Z,74.10
2023-03-14T03:23:46.009Z,74.05
2023-03-14T03:26:48.240Z,74.69
2023-03-14T03:29:50.482Z,74.70
2023-03-14T03:32:52.876Z,74.80
2023-03-14T03:35:55.188Z,74.56
2023-03-14T03:39:04.719Z,74.41
2023-03-14T03:42:07.033Z,74.38
2023-03-14T03:45:12.038Z,74.16
2023-03-14T03:48:24.429Z,74.05
2023-03-14T03:51:27.184Z,73.59
2023-03-14T03:54:32.493Z,73.41
2023-03-14T03:57:35.642Z,73.46
2023-03-14T04:00:37.888Z,73.37
2023-03-14T04:03:40.404Z,72.83
2023-03-14T04:06:43.528Z,72.03
2023-03-14T04:09:45.982Z,71.47
2023-03-14T04:12:59.463Z,70.96
2023-03-14T04:16:05.156Z,69.91
2023-03-14T04:19:08.970Z,70.34
2023-03-14T04:22:12.022Z,69.81
2023-03-14T04:25:26.199Z,70.41
2023-03-14T04:28:32.499Z,69.99
2023-03-14T04:31:35.381Z,69.76
2023-03-14T04:34:37.853Z,69.99
2023-03-14T04:37:40.989Z,69.89
2023-03-14T04:40:45.501Z,70.24
2023-03-14T04:43:49.147Z,69.86
2023-03-14T04:46:51.601Z,70.19
2023-03-14T04:49:54.023Z,70.48
2023-03-14T04:52:57.865Z,70.72
2023-03-14T04:56:00.567Z,70.40
2023-03-14T04:59:09.997Z,70.76
2023-03-14T05:02:14.676Z,70.48
2023-03-14T05:05:32.906Z,71.04
2023-03-14T05:08:47.357Z,70.87
2023-03-14T05:11:55.356Z,70.64
2023-03-14T05:15:26.573Z,70.78
2023-03-14T05:18:47.244Z,70.92
2023-03-14T05:22:12.559Z,70.83
2023-03-14T05:25:33.309Z,70.33
2023-03-14T05:28:54.220Z,70.14
2023-03-14T05:32:07.726Z,70.52
2023-03-14T05:35:26.841Z,70.06
2023-03-14T05:38:52.311Z,69.83
2023-03-14T05:42:13.168Z,69.28
2023-03-14T05:45:36.297Z,69.38
2023-03-14T05:48:45.784Z,68.88
2023-03-14T05:52:15.332Z,69.04
2023-03-14T05:55:37.768Z,68.69
2023-03-14T05:58:39.911Z,68.28
2023-03-14T06:02:14.388Z,68.07
2023-03-14T06:05:26.708Z,69.01
2023-03-14T06:08:35.542Z,67.91
2023-03-14T06:11:40.949Z,68.39
2023-03-14T06:14:43.672Z,67.61
2023-03-14T06:17:46.781Z,67.77
2023-03-14T06:20:49.750Z,67.27
2023-03-14T06:23:59.257Z,66.78
2023-03-14T06:27:04.573Z,66.50
2023-03-14T06:30:07.960Z,66.39
2023-03-14T06:33:13.528Z,66.62
2023-03-14T06:36:17.382Z,66.26
2023-03-14T06:39:22.404Z,66.22
2023-03-14T06:42:32.146Z,66.67
2023-03-14T06:45:36.841Z,67.16
2023-03-14T06:48:41.626Z,66.78
2023-03-14T06:51:46.886Z,66.14
2023-03-14T06:54:49.809Z,65.87
2023-03-14T06:57:58.169Z,65.77
2023-03-14T07:01:02.998Z,65.94
2023-03-14T07:04:12.329Z,65.70
2023-03-14T07:07:23.359Z,65.57
2023-03-14T07:10:27.214Z,64.68
2023-03-14T07:13:40.931Z,63.64
2023-03-14T07:16:45.384Z,62.94
2023-03-14T07:19:48.277Z,63.50
2023-03-14T07:22:51.482Z,61.69
2023-03-14T07:26:04.323Z,58.28
2023-03-14T07:29:08.887Z,55.51
2023-03-14T07:32:18.612Z,53.57
2023-03-14T07:35:26.214Z,53.38
2023-03-14T07:38:30.767Z,52.72
2023-03-14T07:42:04.711Z,51.84
2023-03-14T07:45:42.529Z,54.07
2023-03-14T07:48:45.516Z,53.83
2023-03-14T07:51:50.700Z,51.95
2023-03-14T07:54:53.337Z,52.97
2023-03-14T07:57:55.726Z,52.04
2023-03-14T08:01:00.162Z,50.84
2023-03-14T08:04:03.196Z,49.28
2023-03-14T08:07:13.111Z,48.65
2023-03-14T08:10:26.833Z,50.92
2023-03-14T08:13:30.035Z,50.77
2023-03-14T08:16:32.598Z,51.93
2023-03-14T08:19:36.129Z,50.17
2023-03-14T08:22:38.692Z,50.37
2023-03-14T08:25:42.673Z,49.83
2023-03-14T08:28:53.528Z,49.21
2023-03-14T08:31:56.657Z,47.66
2023-03-14T08:35:01.517Z,47.63
2023-03-14T08:38:08.140Z,46.56
2023-03-14T08:41:11.305Z,45.90
2023-03-14T08:44:16.314Z,46.30
2023-03-14T08:47:20.303Z,46.81
2023-03-14T08:50:24.300Z,47.61
2023-03-14T08:53:31.636Z,44.32
2023-03-14T08:56:34.043Z,42.49
2023-03-14T08:59:39.077Z,41.71
2023-03-14T09:02:41.418Z,43.03
2023-03-14T09:05:43.664Z,44.56
2023-03-14T09:08:46.867Z,44.44
2023-03-14T09:11:49.527Z,45.65
2023-03-14T09:14:52.263Z,44.78
2023-03-14T09:18:14.873Z,45.47
2023-03-14T09:21:17.366Z,45.39
2023-03-14T09:24:19.881Z,42.91
2023-03-14T09:27:22.622Z,42.90
2023-03-14T09:30:27.205Z,43.57
2023-03-14T09:33:29.600Z,43.44
2023-03-14T09:36:34.082Z,43.63
2023-03-14T09:39:36.461Z,43.35
2023-03-14T09:42:40.374Z,43.29
2023-03-14T09:45:48.290Z,43.15
2023-03-14T09:48:50.614Z,41.15
2023-03-14T09:51:55.736Z,39.53
2023-03-14T09:55:24.595Z,40.67
2023-03-14T09:58:26.875Z,40.66
2023-03-14T10:01:32.850Z,40.93
2023-03-14T10:04:35.562Z,41.40
2023-03-14T10:07:40.393Z,40.16
2023-03-14T10:10:44.845Z,39.89
2023-03-14T10:14:05.338Z,40.12
2023-03-14T10:17:13.094Z,40.62
2023-03-14T10:20:35.379Z,40.33
2023-03-14T10:23:40.045Z,38.51
2023-03-14T10:26:49.398Z,38.09
2023-03-14T10:30:00.734Z,39.02
2023-03-14T10:33:21.402Z,39.52
2023-03-14T10:36:29.247Z,39.04
2023-03-14T10:39:54.527Z,37.82
2023-03-14T10:42:59.716Z,37.64
2023-03-14T10:46:17.591Z,36.53
2023-03-14T10:49:38.624Z,35.22
2023-03-14T10:53:01.992Z,33.09
2023-03-14T10:56:06.120Z,33.10
2023-03-14T10:59:14.259Z,34.08
2023-03-14T11:02:59.519Z,33.40
2023-03-14T11:06:22.035Z,33.96
2023-03-14T11:09:30.271Z,33.99
2023-03-14T11:12:47.455Z,35.20
2023-03-14T11:16:13.035Z,35.04
2023-03-14T11:19:41.819Z,35.69
2023-03-14T11:23:15.619Z,33.75
2023-03-14T11:26:17.851Z,34.39
2023-03-14T11:29:23.009Z,33.75
2023-03-14T11:32:47.165Z,32.56
2023-03-14T11:36:07.668Z,32.69
2023-03-14T11:39:18.652Z,34.15
2023-03-14T11:42:22.416Z,35.76
2023-03-14T11:45:31.831Z,35.62
2023-03-14T11:48:43.132Z,35.62
2023-03-14T11:51:50.485Z,35.67
2023-03-14T11:55:14.338Z,34.69
2023-03-14T11:58:28.294Z,35.45
2023-03-14T12:01:41.972Z,34.77
2023-03-14T12:04:56.401Z,35.44
2023-03-14T12:08:10.680Z,34.91
2023-03-14T12:11:36.023Z,34.71
2023-03-14T12:14:45.502Z,32.66
2023-03-14T12:17:48.652Z,34.46
2023-03-14T12:21:25.284Z,33.88
2023-03-14T12:24:32.972Z,32.98
2023-03-14T12:27:48.586Z,33.81
2023-03-14T12:30:50.791Z,32.47
2023-03-14T12:34:22.410Z,33.13
2023-03-14T12:37:37.410Z,32.12
2023-03-14T12:40:49.206Z,31.34
2023-03-14T12:43:51.770Z,31.50
2023-03-14T12:46:54.223Z,31.61
2023-03-14T12:49:58.353Z,30.98
2023-03-14T12:53:06.354Z,30.91
2023-03-14T12:56:21.806Z,31.62
2023-03-14T12:59:48.658Z,31.04
2023-03-14T13:02:54.504Z,29.86
2023-03-14T13:05:58.915Z,30.32
2023-03-14T13:09:30.275Z,29.93
2023-03-14T13:12:41.081Z,29.03
2023-03-14T13:15:45.557Z,29.83
2023-03-14T13:19:08.972Z,28.24
2023-03-14T13:22:22.956Z,29.55
2023-03-14T13:25:25.337Z,29.46
2023-03-14T13:28:30.403Z,29.51
2023-03-14T13:31:32.630Z,29.66
2023-03-14T13:34:36.155Z,30.76
2023-03-14T13:37:41.026Z,32.04
2023-03-14T13:40:45.311Z,29.13
2023-03-14T13:43:47.580Z,32.86
2023-03-14T13:46:49.875Z,28.28
2023-03-14T13:49:53.272Z,31.71
2023-03-14T13:52:59.075Z,35.30
2023-03-14T13:56:04.885Z,34.89
2023-03-14T13:59:32.474Z,36.26
2023-03-14T14:02:37.333Z,37.53
2023-03-14T14:05:42.393Z,38.22
2023-03-14T14:08:45.637Z,39.02
2023-03-14T14:12:11.395Z,37.71
2023-03-14T14:15:29.343Z,37.20
2023-03-14T14:18:33.288Z,36.67
2023-03-14T14:21:35.940Z,36.64
2023-03-14T14:24:39.822Z,37.01
2023-03-14T14:27:45.611Z,37.46
2023-03-14T14:30:48.043Z,37.47
2023-03-14T14:34:01.036Z,36.58
2023-03-14T14:37:03.394Z,37.42
2023-03-14T14:40:26.642Z,38.24
2023-03-14T14:43:31.614Z,38.26
2023-03-14T14:46:37.122Z,39.10
2023-03-14T14:49:39.701Z,38.83
2023-03-14T14:52:44.782Z,38.99
2023-03-14T14:55:54.644Z,39.31
2023-03-14T14:59:00.953Z,39.21
2023-03-14T15:02:03.948Z,39.64
2023-03-14T15:05:07.368Z,40.03
2023-03-14T15:08:12.975Z,39.74
2023-03-14T15:11:18.824Z,40.24
2023-03-14T15:14:21.106Z,40.66
2023-03-14T15:17:23.515Z,40.62
2023-03-14T15:20:25.837Z,40.66
2023-03-14T15:23:28.028Z,40.82
2023-03-14T15:26:30.342Z,40.86
2023-03-14T15:29:33.722Z,41.38
2023-03-14T15:32:38.167Z,41.20
2023-03-14T15:35:42.409Z,41.27
2023-03-14T15:38:44.623Z,41.87
2023-03-14T15:41:46.892Z,41.97
2023-03-14T15:44:49.134Z,41.81
2023-03-14T15:47:51.370Z,42.39
2023-03-14T15:50:53.603Z,42.73
2023-03-14T15:53:55.871Z,43.18
2023-03-14T15:56:58.098Z,42.98
2023-03-14T16:00:00.361Z,43.39
2023-03-14T16:03:02.559Z,43.81
2023-03-14T16:06:05.590Z,44.64
2023-03-14T16:09:08.189Z,46.62
2023-03-14T16:12:10.476Z,47.95
2023-03-14T16:15:12.757Z,48.66
2023-03-14T16:18:21.525Z,48.76
2023-03-14T16:21:24.625Z,49.05
2023-03-14T16:24:26.822Z,49.18
2023-03-14T16:27:29.046Z,49.31
2023-03-14T16:30:31.376Z,49.40
2023-03-14T16:33:34.853Z,50.03
2023-03-14T16:36:37.283Z,50.36
2023-03-14T16:40:01.091Z,51.09
2023-03-14T16:43:15.730Z,51.58
2023-03-14T16:46:19.117Z,51.93
2023-03-14T16:49:21.410Z,52.31
2023-03-14T16:52:23.694Z,52.45
2023-03-14T16:55:25.946Z,52.60
2023-03-14T16:58:30.321Z,53.34
2023-03-14T17:01:32.674Z,53.18
2023-03-14T17:04:37.947Z,53.38
2023-03-14T17:07:40.209Z,53.83
2023-03-14T17:10:42.544Z,53.69
2023-03-14T17:13:45.022Z,54.03
2023-03-14T17:16:47.762Z,53.80
2023-03-14T17:19:50.061Z,53.80
2023-03-14T17:22:52.289Z,53.43
2023-03-14T17:25:54.582Z,53.59
2023-03-14T17:28:56.805Z,53.19
2023-03-14T17:31:59.115Z,53.84
2023-03-14T17:35:01.352Z,53.62
2023-03-14T17:38:04.782Z,54.01
2023-03-14T17:41:16.525Z,53.67
2023-03-14T17:44:18.855Z,55.31
2023-03-14T17:47:21.101Z,55.55
2023-03-14T17:50:23.413Z,55.13
2023-03-14T17:53:25.732Z,53.59
2023-03-14T17:56:28.002Z,52.39
2023-03-14T17:59:30.209Z,51.45
2023-03-14T18:02:32.540Z,51.45
2023-03-14T18:05:38.718Z,53.19
2023-03-14T18:08:44.111Z,54.44
2023-03-14T18:11:47.201Z,55.56
2023-03-14T18:14:50.627Z,54.88
2023-03-14T18:17:52.825Z,55.75
2023-03-14T18:20:55.029Z,57.38
2023-03-14T18:23:57.450Z,58.31
2023-03-14T18:26:59.867Z,59.15
2023-03-14T18:30:02.692Z,60.24
2023-03-14T18:33:05.537Z,61.18
2023-03-14T18:36:12.903Z,61.87
2023-03-14T18:39:15.202Z,62.21
2023-03-14T18:42:17.481Z,62.87
2023-03-14T18:45:19.711Z,63.42
2023-03-14T18:48:25.104Z,64.28
2023-03-14T18:51:29.058Z,64.53
2023-03-14T18:54:31.405Z,65.46
2023-03-14T18:57:33.653Z,66.09
2023-03-14T19:00:37.387Z,66.94
2023-03-14T19:03:40.503Z,66.89
2023-03-14T19:06:42.975Z,67.65
2023-03-14T19:09:45.360Z,68.17
2023-03-14T19:12:48.181Z,68.75
2023-03-14T19:15:50.697Z,69.31
2023-03-14T19:18:53.273Z,69.17
2023-03-14T19:21:55.565Z,69.65
2023-03-14T19:24:58.159Z,70.46
2023-03-14T19:28:00.398Z,71.30
2023-03-14T19:31:04.204Z,72.15
2023-03-14T19:34:06.782Z,73.09
2023-03-14T19:37:08.989Z,74.11
2023-03-14T19:40:14.401Z,74.64
2023-03-14T19:43:17.385Z,74.20
2023-03-14T19:46:21.696Z,74.15
2023-03-14T19:49:24.015Z,74.80
2023-03-14T19:52:29.236Z,74.45
2023-03-14T19:55:35.263Z,74.95
2023-03-14T19:58:41.078Z,75.36
2023-03-14T20:01:47.153Z,75.61
2023-03-14T20:04:50.221Z,76.22
2023-03-14T20:07:52.488Z,76.61
2023-03-14T20:10:54.704Z,76.89
2023-03-14T20:13:56.891Z,77.29
2023-03-14T20:16:59.496Z,77.87
2023-03-14T20:20:01.792Z,78.36
2023-03-14T20:23:04.052Z,77.89
2023-03-14T20:26:06.474Z,77.95
2023-03-14T20:29:08.940Z,78.08
2023-03-14T20:32:11.238Z,78.64
2023-03-14T20:35:14.618Z,78.26
2023-03-14T20:38:16.761Z,78.25
2023-03-14T20:41:18.945Z,78.77
2023-03-14T20:44:21.145Z,79.20
2023-03-14T20:47:23.368Z,79.77
2023-03-14T20:50:25.533Z,79.55
2023-03-14T20:53:27.983Z,79.48
2023-03-14T20:56:30.519Z,79.98
2023-03-14T20:59:32.894Z,80.10
2023-03-14T21:02:42.001Z,79.87
2023-03-14T21:05:48.823Z,79.81
2023-03-14T21:08:51.144Z,79.59
2023-03-14T21:11:53.808Z,79.76
2023-03-14T21:14:56.085Z,80.02
2023-03-14T21:17:58.486Z,80.12
2023-03-14T21:21:00.855Z,80.09
2023-03-14T21:24:03.528Z,80.47
2023-03-14T21:27:05.738Z,80.41
2023-03-14T21:30:12.886Z,80.53
2023-03-14T21:33:15.581Z,80.42
2023-03-14T21:36:19.455Z,79.83
2023-03-14T21:39:22.158Z,79.90
2023-03-14T21:42:24.462Z,80.16
2023-03-14T21:45:27.298Z,80.40
2023-03-14T21:48:29.595Z,80.48
2023-03-14T21:51:35.800Z,80.43
2023-03-14T21:54:38.125Z,81.01
2023-03-14T21:57:40.442Z,81.74
2023-03-14T22:00:49.316Z,83.92
2023-03-14T22:03:51.695Z,83.20
2023-03-14T22:06:53.890Z,83.99
2023-03-14T22:09:56.162Z,83.61
2023-03-14T22:12:58.411Z,83.42
2023-03-14T22:16:00.721Z,83.52
2023-03-14T22:19:03.007Z,83.35
2023-03-14T22:22:05.362Z,83.37
2023-03-14T22:25:07.997Z,82.90
2023-03-14T22:28:10.915Z,81.93
2023-03-14T22:31:13.182Z,82.34
2023-03-14T22:34:15.505Z,82.24
2023-03-14T22:37:17.829Z,82.17
2023-03-14T22:40:20.354Z,82.78
2023-03-14T22:43:22.647Z,83.30
2023-03-14T22:46:24.890Z,83.02
2023-03-14T22:49:30.356Z,83.74
2023-03-14T22:52:32.883Z,83.61
2023-03-14T22:55:35.186Z,83.37
2023-03-14T22:58:37.717Z,84.46
2023-03-14T23:01:46.930Z,84.34
2023-03-14T23:04:49.381Z,83.79
2023-03-14T23:07:53.452Z,82.72
2023-03-14T23:11:06.108Z,81.94
2023-03-14T23:14:08.948Z,81.19
2023-03-14T23:17:11.331Z,80.77
2023-03-14T23:20:13.635Z,80.12
2023-03-14T23:23:15.928Z,79.87
2023-03-14T23:26:22.333Z,80.01
2023-03-14T23:29:24.565Z,80.31
2023-03-14T23:32:26.983Z,80.22
2023-03-14T23:35:29.198Z,80.62
2023-03-14T23:38:32.980Z,80.77
2023-03-14T23:41:35.948Z,81.21
2023-03-14T23:44:38.437Z,81.25
2023-03-14T23:47:41.446Z,81.66
2023-03-14T23:50:43.710Z,81.71
2023-03-14T23:53:46.094Z,79.80
2023-03-14T23:56:48.618Z,78.40
2023-03-14T23:59:53.751Z,78.99
